• Join FlightAware (Why Join?)
  • Login
  • US Flag 
02:25AM EDT


 

Airport Tracker/Info


-or-


 

Live Flight TrackerFlight Track Log ✈ N559LC ✈ 23-Nov-2013 ✈ KDTW - KDAL

Flight Track Log - Related Links

Times and Time Zones

All times are in EST time to prevent confusion due to time zone crossing. See the N559LC flight status page for this flight to view local times or setup timezone preferences in your user account.

Time Position Orientation Groundspeed Altitude Reporting Facility
EST Latitude Longitude Course Direction KTS MPH feet Rate Location/Type
05:17PM 42.2231 -83.3386 North 147 169 1,700  Level Cleveland Center
05:17PM 42.2608 -83.3353 North 187 215 4,600 2,940 Climbing Cleveland Center
05:18PM 42.2681 -83.3350 North 177 204 4,900 3,600 Climbing Cleveland Center
05:18PM 42.3086 -83.3675 329° Northwest 226 260 8,300 4,080 Climbing Cleveland Center
05:19PM 42.3094 -83.3817 275° West 227 261 9,100 3,000 Climbing Cleveland Center
05:20PM 42.2917 -83.4811 256° West 265 305 12,200 3,420 Climbing Cleveland Center
05:21PM 42.2103 -83.5711 219° Southwest 354 407 16,200 3,180 Climbing Cleveland Center
05:22PM 42.1233 -83.6067 197° South 368 423 18,800 2,820 Climbing Cleveland Center
05:23PM 42.0214 -83.6497 197° South 381 438 22,000 3,360 Climbing Cleveland Center
05:24PM 41.8947 -83.7017 197° South 397 457 25,700 2,820 Climbing Cleveland Center
05:25PM 41.7911 -83.7517 200° South 396 456 27,800 2,400 Climbing Cleveland Center
05:26PM 41.7131 -83.8392 220° Southwest 367 422 30,600 2,160 Climbing Cleveland Center
05:27PM 41.6567 -83.9394 233° Southwest 341 392 32,300 1,440 Climbing Cleveland Center
05:28PM 41.5981 -84.0422 233° Southwest 346 398 33,600 1,440 Climbing Cleveland Center
05:29PM 41.5403 -84.1419 232° Southwest 357 411 35,200 1,320 Climbing Chicago Center
05:30PM 41.4797 -84.2489 233° Southwest 361 415 36,200 960 Climbing Chicago Center
05:31PM 41.4186 -84.3567 233° Southwest 364 419 37,200 1,260 Climbing Chicago Center
05:32PM 41.3553 -84.4642 232° Southwest 368 423 38,800 1,620 Climbing Chicago Center
05:33PM 41.2975 -84.5619 232° Southwest 345 397 40,600 1,260 Climbing Chicago Center
05:34PM 41.2306 -84.6781 233° Southwest 330 380 41,500 660 Climbing Chicago Center
05:35PM 41.1722 -84.7772 232° Southwest 337 388 42,000 480 Climbing Chicago Center
05:36PM 41.1128 -84.8792 232° Southwest 345 397 42,500 480 Climbing Chicago Center
05:37PM 41.0533 -84.9781 231° Southwest 344 396 43,000 240 Climbing Chicago Center
05:38PM 40.9928 -85.0814 232° Southwest 349 402 43,000  Level Chicago Center
05:39PM 40.9306 -85.1867 232° Southwest 356 410 43,000  Level Chicago Center
05:40PM 40.8664 -85.2933 232° Southwest 362 417 43,000  Level Chicago Center
05:41PM 40.8003 -85.4031 232° Southwest 373 429 43,000  Level Chicago Center
05:42PM 40.7342 -85.5142 232° Southwest 382 440 43,000  Level Chicago Center
05:43PM 40.6550 -85.6469 232° Southwest 390 449 43,000  Level Chicago Center
05:44PM 40.5869 -85.7594 231° Southwest 393 452 43,000  Level Chicago Center
05:45PM 40.5203 -85.8706 232° Southwest 391 450 43,000  Level Chicago Center
05:46PM 40.4525 -85.9800 231° Southwest 389 448 43,000  Level Chicago Center
05:47PM 40.3864 -86.0886 231° Southwest 385 443 43,000  Level Chicago Center
05:48PM 40.3217 -86.1953 232° Southwest 379 436 43,000  Level Chicago Center
05:49PM 40.2647 -86.3364 242° Southwest 368 423 43,000  Level Chicago Center
05:50PM 40.2153 -86.4561 242° Southwest 375 432 43,000 60 Level Chicago Center
05:51PM 40.1458 -86.5628 230° Southwest 387 445 43,200 480 Climbing Chicago Center
05:52PM 40.0778 -86.6700 230° Southwest 387 445 44,000 540 Climbing Chicago Center
05:53PM 40.0119 -86.7744 231° Southwest 380 437 44,400 480 Climbing Chicago Center
05:55PM 39.9336 -86.8978 230° Southwest 372 428 45,000 240 Climbing Chicago Center
05:56PM 39.8681 -86.9986 230° Southwest 368 423 45,000  Level Chicago Center
05:57PM 39.8031 -87.1003 230° Southwest 368 423 45,000  Level Chicago Center
05:58PM 39.7381 -87.2003 230° Southwest 366 421 45,000  Level Chicago Center
05:59PM 39.6722 -87.3008 230° Southwest 366 421 45,000  Level Chicago Center
06:00PM 39.6067 -87.4008 230° Southwest 366 421 45,000  Level Chicago Center
06:01PM 39.5419 -87.5017 230° Southwest 367 422 45,000  Level Chicago Center
06:02PM 39.4611 -87.6228 229° Southwest 370 426 45,000  Level Indianapolis Center
06:03PM 39.3947 -87.7236 230° Southwest 370 426 45,000  Level Indianapolis Center
06:04PM 39.3153 -87.8442 230° Southwest 374 430 45,000  Level Indianapolis Center
06:05PM 39.2475 -87.9464 229° Southwest 375 432 45,000  Level Indianapolis Center
06:06PM 39.1792 -88.0489 229° Southwest 375 432 45,000  Level Indianapolis Center
06:07PM 39.1111 -88.1519 230° Southwest 376 433 45,000  Level Indianapolis Center
06:08PM 39.0406 -88.2575 229° Southwest 382 440 45,000  Level Indianapolis Center
06:09PM 38.9686 -88.3619 228° Southwest 387 445 45,000  Level Indianapolis Center
06:10PM 38.8986 -88.4667 229° Southwest 387 445 45,000  Level Indianapolis Center
06:11PM 38.8283 -88.5708 229° Southwest 386 444 45,000  Level Indianapolis Center
06:12PM 38.7533 -88.6806 229° Southwest 383 441 45,000  Level Kansas City Center
06:13PM 38.6844 -88.7822 229° Southwest 380 437 45,000  Level Kansas City Center
06:14PM 38.6042 -88.8994 229° Southwest 376 433 45,000  Level Kansas City Center
06:15PM 38.5333 -89.0042 229° Southwest 364 419 45,000  Level Kansas City Center
06:16PM 38.4672 -89.1017 229° Southwest 363 418 45,000  Level Kansas City Center
06:17PM 38.4000 -89.1978 228° Southwest 362 417 45,000  Level Kansas City Center
06:18PM 38.3361 -89.2903 229° Southwest 365 420 45,000  Level Kansas City Center
06:19PM 38.2672 -89.3894 229° Southwest 371 427 45,000  Level Kansas City Center
06:20PM 38.1983 -89.4886 229° Southwest 373 429 45,000  Level Kansas City Center
06:21PM 38.1300 -89.5869 229° Southwest 371 427 45,000  Level Kansas City Center
06:22PM 38.0469 -89.7042 228° Southwest 370 426 45,000  Level Kansas City Center
06:23PM 37.9789 -89.8014 228° Southwest 369 425 45,000  Level Kansas City Center
06:24PM 37.9092 -89.9006 228° Southwest 374 430 45,000  Level Kansas City Center
06:25PM 37.8394 -89.9989 228° Southwest 377 434 45,000  Level Kansas City Center
06:26PM 37.7683 -90.0994 228° Southwest 380 437 45,000  Level Kansas City Center
06:28PM 37.6983 -90.1986 228° Southwest 380 437 45,000  Level Kansas City Center
06:29PM 37.6347 -90.3025 232° Southwest 374 430 45,000  Level Kansas City Center
06:30PM 37.5781 -90.4108 237° Southwest 371 427 45,000  Level Kansas City Center
06:31PM 37.5206 -90.5172 236° Southwest 367 422 45,000  Level Kansas City Center
06:32PM 37.4639 -90.6256 237° Southwest 369 425 45,000  Level Kansas City Center
06:33PM 37.3953 -90.7511 236° Southwest 366 421 45,000  Level Kansas City Center
06:34PM 37.3392 -90.8519 235° Southwest 367 422 45,000  Level Kansas City Center
06:35PM 37.2844 -90.9581 237° Southwest 364 419 45,000  Level Kansas City Center
06:36PM 37.2247 -91.0661 235° Southwest 367 422 45,000  Level Kansas City Center
06:37PM 37.1631 -91.1761 235° Southwest 375 432 45,000  Level Kansas City Center
06:38PM 37.1050 -91.2842 236° Southwest 373 429 45,000  Level Kansas City Center
06:39PM 37.0467 -91.3886 235° Southwest 367 422 45,000  Level Kansas City Center
06:40PM 36.9750 -91.5172 235° Southwest 370 426 45,000  Level Kansas City Center
06:41PM 36.9142 -91.6278 235° Southwest 378 435 45,000  Level Kansas City Center
06:42PM 36.8536 -91.7375 235° Southwest 381 438 45,000  Level Kansas City Center
06:43PM 36.7908 -91.8514 235° Southwest 389 448 45,000  Level Kansas City Center
06:44PM 36.7306 -91.9606 235° Southwest 384 442 45,000  Level Kansas City Center
06:45PM 36.6692 -92.0678 235° Southwest 381 438 45,000  Level Kansas City Center
06:46PM 36.6081 -92.1783 235° Southwest 381 438 45,000  Level Kansas City Center
06:47PM 36.5444 -92.2922 235° Southwest 383 441 45,000  Level Kansas City Center
06:48PM 36.4825 -92.3978 234° Southwest 381 438 45,000  Level Kansas City Center
06:49PM 36.4219 -92.5064 235° Southwest 381 438 45,000  Level Kansas City Center
06:50PM 36.3597 -92.6119 234° Southwest 380 437 45,000  Level Kansas City Center
06:51PM 36.2739 -92.7619 235° Southwest 382 440 45,000  Level Memphis Center
06:52PM 36.2128 -92.8675 234° Southwest 381 438 45,000  Level Memphis Center
06:53PM 36.1533 -92.9714 235° Southwest 377 434 45,000  Level Memphis Center
06:54PM 36.0917 -93.0769 234° Southwest 377 434 45,000  Level Memphis Center
06:55PM 36.0319 -93.1803 234° Southwest 375 432 45,000  Level Memphis Center
06:56PM 35.9592 -93.3050 234° Southwest 375 432 45,000  Level Memphis Center
06:58PM 35.8981 -93.4092 234° Southwest 377 434 45,000  Level Memphis Center
06:59PM 35.8369 -93.5147 234° Southwest 379 436 45,000  Level Memphis Center
07:00PM 35.7744 -93.6208 234° Southwest 383 441 45,000  Level Memphis Center
07:01PM 35.7117 -93.7275 234° Southwest 385 443 45,000  Level Memphis Center
07:02PM 35.6486 -93.8347 234° Southwest 387 445 45,000  Level Memphis Center
07:03PM 35.5853 -93.9417 234° Southwest 389 448 45,000  Level Memphis Center
07:04PM 35.5233 -94.0469 234° Southwest 386 444 45,000  Level Memphis Center
07:05PM 35.4453 -94.1769 234° Southwest 390 449 45,000  Level Memphis Center
07:06PM 35.3778 -94.2844 232° Southwest 397 457 45,000  Level Memphis Center
07:07PM 35.2917 -94.3761 221° Southwest 407 468 45,000  Level Memphis Center
07:08PM 35.2078 -94.4675 222° Southwest 407 468 45,000  Level Memphis Center
07:09PM 35.1236 -94.5592 222° Southwest 406 467 45,000 -60 Level Memphis Center
07:10PM 35.0417 -94.6464 221° Southwest 400 460 44,900  Descending Fort Worth Center
07:11PM 34.9575 -94.7375 222° Southwest 402 463 45,000  Climbing Fort Worth Center
07:12PM 34.8703 -94.8336 222° Southwest 403 464 45,000  Level Fort Worth Center
07:13PM 34.7867 -94.9233 221° Southwest 403 464 45,000 -840 Level Fort Worth Center
07:14PM 34.6825 -94.9872 207° Southwest 449 517 43,300 -1,800 Descending Fort Worth Center
07:15PM 34.5547 -94.9747 175° South 464 534 41,400 -2,160 Descending Fort Worth Center
07:16PM 34.4044 -94.9572 175° South 454 522 38,900 -2,160 Descending Fort Worth Center
07:17PM 34.2861 -94.9561 180° South 438 504 37,000 -960 Descending Fort Worth Center
07:18PM 34.1897 -95.0328 213° Southwest 426 490 37,000 -1,140 Level Fort Worth Center
07:19PM 34.1161 -95.1406 230° Southwest 423 487 34,700 -2,340 Descending Fort Worth Center
07:20PM 34.0369 -95.2525 230° Southwest 439 505 32,300 -2,400 Descending Fort Worth Center
07:21PM 33.9589 -95.3661 230° Southwest 444 511 29,800 -2,640 Descending Fort Worth Center
07:22PM 33.8769 -95.4814 229° Southwest 455 524 26,900 -2,880 Descending Fort Worth Center
07:23PM 33.7933 -95.5975 229° Southwest 428 493 23,900 -2,760 Descending Fort Worth Center
07:24PM 33.7186 -95.7036 230° Southwest 418 481 21,300 -2,520 Descending Fort Worth Center
07:25PM 33.6433 -95.8078 229° Southwest 414 476 18,800 -2,760 Descending Fort Worth Center
07:26PM 33.5586 -95.9261 229° Southwest 413 475 15,800 -2,700 Descending Fort Worth Center
07:27PM 33.4808 -96.0336 229° Southwest 398 458 13,300 -2,400 Descending Fort Worth Center
07:28PM 33.4100 -96.1300 229° Southwest 388 447 10,900 -1,620 Descending Fort Worth Center
07:29PM 33.3458 -96.2200 230° Southwest 357 411 10,000 -780 Descending Fort Worth Center
07:30PM 33.2794 -96.3097 229° Southwest 336 387 9,400 -600 Descending Fort Worth Center
07:31PM 33.2333 -96.3833 233° Southwest 287 330 8,800 -1,320 Descending Dallas / Fort Worth TRACON
07:32PM 33.1833 -96.4500 228° Southwest 288 331 6,900 -2,160 Descending Dallas / Fort Worth TRACON
07:33PM 33.1167 -96.5167 220° Southwest 290 334 4,700 -1,440 Descending Dallas / Fort Worth TRACON
07:34PM 33.0500 -96.5667 212° Southwest 289 333 4,000 -360 Descending Dallas / Fort Worth TRACON
07:35PM 32.9833 -96.6167 212° Southwest 295 339 4,000 -480 Level Dallas / Fort Worth TRACON
07:36PM 32.9042 -96.6756 212° Southwest 282 325 3,000 -480 Descending Fort Worth Center
07:37PM 32.8500 -96.7167 213° Southwest 213 245 3,000 -300 Level Dallas / Fort Worth TRACON
07:38PM 32.8000 -96.7333 196° South 187 215 2,500 -660 Descending Dallas / Fort Worth TRACON
07:39PM 32.8000 -96.7833 270° West 147 169 1,700 -780 Descending Dallas / Fort Worth TRACON
07:40PM 32.8167 -96.8167 301° West 131 151 1,000 -720 Descending Dallas / Fort Worth TRACON
07:43PM 32.8333 -96.8500 228° Southwest  Level FlightAware Approximate